Time;durP1;ratioP1;P1;durP2;ratioP2;P2;SDS_P1;SDS_P2;PMS_P1;PMS_P2;Temp;Humidity;BMP_temperature;BMP_pressure;BME280_temperature;BME280_humidity;BME280_pressure;Samples;Min_cycle;Max_cycle;Signal;HPM_P1;HPM_P2
2022/09/22 04:13:46;;;;;;;8.85;3.70;;;;;;;;;;5025900;28;20044;-65
2022/09/22 04:16:13;;;;;;;5.47;3.17;;;;;;;;;;5000676;28;20107;-65
2022/09/22 04:18:39;;;;;;;6.10;3.10;;;;;;;;;;4999339;28;20045;-64
2022/09/22 04:21:06;;;;;;;5.15;3.15;;;;;;;;;;5002640;28;20084;-66
2022/09/22 04:23:33;;;;;;;9.63;3.65;;;;;;;;;;5000158;28;20129;-65
2022/09/22 04:26:00;;;;;;;7.38;3.42;;;;;;;;;;4999627;28;20189;-65
2022/09/22 04:28:27;;;;;;;7.10;3.10;;;;;;;;;;5006312;28;20042;-65
2022/09/22 04:30:53;;;;;;;6.50;3.47;;;;;;;;;;5004157;28;20507;-65
2022/09/22 04:33:19;;;;;;;9.55;3.58;;;;;;;;;;4978607;28;20071;-65
2022/09/22 04:35:48;;;;;;;9.63;3.25;;;;;;;;;;4991452;28;20042;-65
2022/09/22 04:38:14;;;;;;;4.65;3.08;;;;;;;;;;4985172;28;20057;-65
2022/09/22 04:40:40;;;;;;;6.88;2.92;;;;;;;;;;5001564;28;20100;-65
2022/09/22 04:43:06;;;;;;;4.22;3.05;;;;;;;;;;4986748;28;20057;-65
2022/09/22 04:45:33;;;;;;;5.28;3.25;;;;;;;;;;4996358;28;20056;-65
2022/09/22 04:47:59;;;;;;;5.45;2.97;;;;;;;;;;4997070;28;20038;-65
2022/09/22 04:50:25;;;;;;;5.43;3.50;;;;;;;;;;5003928;28;20038;-65
2022/09/22 04:52:52;;;;;;;5.13;2.95;;;;;;;;;;5002209;28;20046;-66
2022/09/22 04:55:19;;;;;;;6.75;3.42;;;;;;;;;;5002438;28;20171;-65
2022/09/22 04:57:53;;;;;;;7.38;3.78;;;;;;;;;;4997816;28;20046;-65
2022/09/22 05:00:20;;;;;;;3.63;2.58;;;;;;;;;;4987362;28;20145;-65
2022/09/22 05:02:46;;;;;;;4.68;2.72;;;;;;;;;;5001838;28;20404;-66
2022/09/22 05:05:13;;;;;;;5.35;3.55;;;;;;;;;;5001999;28;20073;-66
2022/09/22 05:07:42;;;;;;;5.78;2.95;;;;;;;;;;5004347;28;20076;-66
2022/09/22 05:10:10;;;;;;;5.30;2.70;;;;;;;;;;5000579;28;20081;-65
2022/09/22 05:12:38;;;;;;;4.20;3.08;;;;;;;;;;5002047;28;20085;-65
2022/09/22 05:15:04;;;;;;;4.70;3.17;;;;;;;;;;4973676;28;20050;-65
2022/09/22 05:17:31;;;;;;;6.22;3.28;;;;;;;;;;4980834;28;20117;-65
2022/09/22 05:19:57;;;;;;;4.18;3.15;;;;;;;;;;4979669;28;20081;-65
2022/09/22 05:22:23;;;;;;;5.13;3.60;;;;;;;;;;4981669;28;20145;-66
2022/09/22 05:24:50;;;;;;;7.82;3.83;;;;;;;;;;4975019;28;20440;-65
2022/09/22 05:27:17;;;;;;;8.75;3.75;;;;;;;;;;4982291;28;20058;-65
2022/09/22 05:29:43;;;;;;;4.70;2.50;;;;;;;;;;4992647;28;20045;-65
2022/09/22 05:32:09;;;;;;;6.07;3.20;;;;;;;;;;4992425;28;20133;-65
2022/09/22 05:34:35;;;;;;;4.47;3.10;;;;;;;;;;4992866;28;20069;-65
2022/09/22 05:37:02;;;;;;;9.43;3.42;;;;;;;;;;4991195;28;20046;-65
2022/09/22 05:39:28;;;;;;;5.00;2.72;;;;;;;;;;4991940;28;20053;-65
2022/09/22 05:41:54;;;;;;;7.20;4.05;;;;;;;;;;5005242;28;20116;-66
2022/09/22 05:44:20;;;;;;;7.65;3.55;;;;;;;;;;5004473;28;20092;-65
2022/09/22 05:46:47;;;;;;;5.10;3.80;;;;;;;;;;4981437;28;20066;-65
2022/09/22 05:49:13;;;;;;;6.18;3.42;;;;;;;;;;4972999;28;20551;-65
2022/09/22 05:51:39;;;;;;;7.30;4.38;;;;;;;;;;4989559;28;20046;-65
2022/09/22 05:54:06;;;;;;;7.75;4.10;;;;;;;;;;4991927;28;20062;-65
2022/09/22 05:56:32;;;;;;;8.25;3.90;;;;;;;;;;4992689;28;20508;-65
2022/09/22 05:58:58;;;;;;;5.07;3.47;;;;;;;;;;4992439;28;20085;-65
2022/09/22 06:01:24;;;;;;;8.60;3.97;;;;;;;;;;4993141;28;20053;-65
2022/09/22 06:03:50;;;;;;;5.60;3.97;;;;;;;;;;4991762;28;20772;-65
2022/09/22 06:06:16;;;;;;;7.95;4.38;;;;;;;;;;4991058;28;20057;-65
2022/09/22 06:08:43;;;;;;;6.90;3.80;;;;;;;;;;4992750;28;20080;-65
2022/09/22 06:11:09;;;;;;;14.57;4.95;;;;;;;;;;4993763;28;20105;-65
2022/09/22 06:13:35;;;;;;;6.03;4.22;;;;;;;;;;4993683;28;20523;-65
2022/09/22 06:16:02;;;;;;;8.70;4.78;;;;;;;;;;4991960;28;20694;-65
2022/09/22 06:18:29;;;;;;;8.75;5.43;;;;;;;;;;4993126;28;20051;-65
2022/09/22 06:20:55;;;;;;;8.13;5.22;;;;;;;;;;4987436;28;20624;-65
2022/09/22 06:23:22;;;;;;;10.63;5.13;;;;;;;;;;4987334;28;20149;-65
2022/09/22 06:25:48;;;;;;;8.00;4.70;;;;;;;;;;4985461;28;20481;-65
2022/09/22 06:28:14;;;;;;;9.60;4.95;;;;;;;;;;4987750;28;20042;-65
2022/09/22 06:30:41;;;;;;;8.15;4.80;;;;;;;;;;4986036;28;20054;-65
2022/09/22 06:33:07;;;;;;;6.63;4.28;;;;;;;;;;4989294;28;20150;-65
2022/09/22 06:35:36;;;;;;;11.25;4.45;;;;;;;;;;4988790;28;20055;-65
2022/09/22 06:38:04;;;;;;;6.57;4.78;;;;;;;;;;4983232;28;20054;-65
2022/09/22 06:40:31;;;;;;;9.00;4.95;;;;;;;;;;4985280;28;20488;-65
2022/09/22 06:43:04;;;;;;;6.95;4.90;;;;;;;;;;4989529;28;20050;-65
2022/09/22 06:45:32;;;;;;;;;;;;;;;;;;4990705;28;20394;-65
2022/09/22 06:48:02;;;;;;;8.57;4.43;;;;;;;;;;4989431;28;20311;-65
2022/09/22 06:50:31;;;;;;;7.40;4.43;;;;;;;;;;4994529;28;20128;-65
2022/09/22 06:52:58;;;;;;;7.05;4.40;;;;;;;;;;4984355;28;20130;-65
2022/09/22 06:55:25;;;;;;;8.45;4.88;;;;;;;;;;4987125;28;20054;-65
2022/09/22 06:57:51;;;;;;;6.35;3.50;;;;;;;;;;4986214;28;20061;-65
2022/09/22 07:00:18;;;;;;;7.45;5.50;;;;;;;;;;4989603;28;20046;-65
2022/09/22 07:02:44;;;;;;;7.78;4.15;;;;;;;;;;4988605;28;20050;-65
2022/09/22 07:05:10;;;;;;;7.05;4.45;;;;;;;;;;4988170;28;20058;-65
2022/09/22 07:07:36;;;;;;;5.78;4.38;;;;;;;;;;4989059;28;20046;-65
2022/09/22 07:10:02;;;;;;;7.32;4.18;;;;;;;;;;4987122;28;20050;-65
2022/09/22 07:12:30;;;;;;;10.02;4.90;;;;;;;;;;4977687;28;20038;-65
2022/09/22 07:14:56;;;;;;;5.68;4.43;;;;;;;;;;4984055;28;20117;-67
2022/09/22 07:17:23;;;;;;;9.80;3.78;;;;;;;;;;4973792;28;20168;-65
2022/09/22 07:19:50;;;;;;;7.80;4.82;;;;;;;;;;4983465;28;20041;-65
2022/09/22 07:22:18;;;;;;;6.88;4.15;;;;;;;;;;4978427;28;20139;-65
2022/09/22 07:24:44;;;;;;;7.40;3.60;;;;;;;;;;4978436;28;20447;-65
2022/09/22 07:27:11;;;;;;;8.55;4.13;;;9.80;99.90;;;;;;4981189;28;20050;-64
2022/09/22 07:29:38;;;;;;;7.78;4.55;;;10.30;99.90;;;;;;4975985;28;20530;-65
2022/09/22 07:32:04;;;;;;;13.52;4.63;;;10.40;99.90;;;;;;4980381;28;20047;-65
2022/09/22 07:34:31;;;;;;;9.02;4.40;;;10.40;99.90;;;;;;4985469;28;20385;-65
2022/09/22 07:36:58;;;;;;;10.73;4.53;;;10.50;99.90;;;;;;4979570;28;20051;-65
2022/09/22 07:39:24;;;;;;;7.35;5.10;;;10.60;99.90;;;;;;4977845;28;20054;-65
2022/09/22 07:41:50;;;;;;;6.50;4.63;;;10.60;99.90;;;;;;4985769;28;20593;-65
2022/09/22 07:47:01;;;;;;;7.75;4.43;;;10.80;99.90;;;;;;4982203;28;20058;-65
2022/09/22 07:49:27;;;;;;;6.28;3.45;;;10.90;99.90;;;;;;4975069;28;20085;-66
2022/09/22 07:51:53;;;;;;;8.57;3.88;;;;;;;;;;4978123;28;20042;-65
2022/09/22 07:54:20;;;;;;;5.45;4.20;;;;;;;;;;4973957;28;20464;-66
2022/09/22 07:56:48;;;;;;;10.38;3.75;;;;;;;;;;4980597;28;20086;-65
2022/09/22 07:59:15;;;;;;;10.60;3.85;;;;;;;;;;4977689;28;20058;-65
2022/09/22 08:01:46;;;;;;;5.47;3.83;;;;;;;;;;4983585;28;20049;-65
2022/09/22 08:04:15;;;;;;;6.30;3.78;;;;;;;;;;4976316;28;20043;-65
2022/09/22 08:06:42;;;;;;;5.10;3.67;;;;;;;;;;4985000;28;20524;-65
2022/09/22 08:09:09;;;;;;;4.72;3.33;;;;;;;;;;4982485;28;20057;-65
2022/09/22 08:11:35;;;;;;;6.38;3.53;;;;;;;;;;4984996;28;20108;-65
2022/09/22 08:14:03;;;;;;;5.15;3.30;;;;;;;;;;4984806;28;20121;-65
2022/09/22 08:16:33;;;;;;;6.70;3.53;;;;;;;;;;5000464;28;20145;-65
2022/09/22 08:19:01;;;;;;;6.20;3.50;;;;;;;;;;4994733;28;20047;-65
2022/09/22 08:21:34;;;;;;;6.70;3.47;;;;;;;;;;4979728;28;20089;-66
2022/09/22 08:24:04;;;;;;;4.57;2.72;;;;;;;;;;4998074;28;20046;-65
2022/09/22 08:26:30;;;;;;;4.70;2.80;;;;;;;;;;4995590;28;20052;-65
2022/09/22 08:28:56;;;;;;;4.63;3.17;;;;;;;;;;4996315;28;20539;-65
2022/09/22 08:31:24;;;;;;;5.07;2.53;;;;;;;;;;5004252;28;20366;-65
2022/09/22 08:33:53;;;;;;;5.63;2.53;;;;;;;;;;4990802;28;20133;-65
2022/09/22 08:36:20;;;;;;;5.97;3.35;;;;;;;;;;4979656;28;20057;-65
2022/09/22 08:38:47;;;;;;;8.20;3.15;;;;;;;;;;5001624;28;20095;-66
2022/09/22 08:41:17;;;;;;;9.25;2.67;;;;;;;;;;5005613;28;20049;-65
2022/09/22 08:43:51;;;;;;;9.30;3.05;;;;;;;;;;5006667;28;20049;-65
2022/09/22 08:46:17;;;;;;;4.60;2.65;;;;;;;;;;5005469;28;20054;-65
2022/09/22 08:51:53;;;;;;;4.05;2.60;;;;;;;;;;5001923;28;20538;-65
2022/09/22 08:54:34;;;;;;;5.20;2.25;;;;;;;;;;5000964;28;20050;-65
2022/09/22 08:57:12;;;;;;;4.03;2.40;;;;;;;;;;4997829;28;20053;-65
2022/09/22 08:59:43;;;;;;;6.30;3.53;;;;;;;;;;4988136;28;20049;-65
2022/09/22 09:02:28;;;;;;;5.45;2.70;;;;;;;;;;4993931;28;20061;-65
2022/09/22 09:05:13;;;;;;;4.10;2.30;;;;;;;;;;5006505;28;20458;-65
2022/09/22 09:07:42;;;;;;;6.68;2.30;;;;;;;;;;5009660;28;20049;-65
2022/09/22 09:10:24;;;;;;;4.45;2.17;;;;;;;;;;5009803;28;20076;-65
2022/09/22 09:12:50;;;;;;;4.65;3.25;;;;;;;;;;4988051;28;20068;-65
2022/09/22 09:15:19;;;;;;;7.03;2.78;;;;;;;;;;5007392;28;20496;-65
2022/09/22 09:17:47;;;;;;;4.15;2.33;;;;;;;;;;5008268;28;20085;-65
2022/09/22 09:20:25;;;;;;;6.93;2.65;;;;;;;;;;5010064;28;20053;-65
2022/09/22 09:22:55;;;;;;;6.00;2.67;;;;;;;;;;5007923;28;20046;-65
2022/09/22 09:25:40;;;;;;;3.03;2.10;;;;;;;;;;5010225;28;20510;-65
2022/09/22 09:28:12;;;;;;;4.53;2.55;;;;;;;;;;5003598;28;20043;-66
2022/09/22 09:30:44;;;;;;;5.15;2.60;;;;;;;;;;4999619;28;20045;-65
2022/09/22 09:33:21;;;;;;;3.72;2.95;;;;;;;;;;5000626;28;20058;-66
2022/09/22 09:35:50;;;;;;;7.03;3.47;;;;;;;;;;5009577;28;20053;-65
2022/09/22 09:38:18;;;;;;;5.18;3.05;;;;;;;;;;4985482;28;20038;-65
2022/09/22 09:40:53;;;;;;;3.78;2.65;;;;;;;;;;4993236;28;20076;-65
2022/09/22 09:43:20;;;;;;;4.20;2.88;;;;;;;;;;5003108;28;20161;-65
2022/09/22 09:45:59;;;;;;;5.28;2.95;;;;;;;;;;5010068;28;20042;-64
2022/09/22 09:48:32;;;;;;;7.60;3.40;;;;;;;;;;5001671;28;20064;-64
2022/09/22 09:50:58;;;;;;;;;;;;;;;;;;4996224;28;20436;-65
2022/09/22 09:53:29;;;;;;;6.72;3.47;;;;;;;;;;4997617;28;19925;-64
2022/09/22 09:55:56;;;;;;;8.27;4.15;;;;;;;;;;5005539;28;20543;-66
2022/09/22 10:01:11;;;;;;;6.55;3.85;;;;;;;;;;5007396;28;20585;-65
2022/09/22 10:03:42;;;;;;;7.28;3.60;;;;;;;;;;5008832;28;20499;-65
2022/09/22 10:06:10;;;;;;;10.07;4.55;;;;;;;;;;5010104;28;20062;-65
2022/09/22 10:08:44;;;;;;;6.07;4.38;;;;;;;;;;4988369;28;20045;-65
2022/09/22 10:11:11;;;;;;;10.57;5.38;;;;;;;;;;4989914;28;20109;-65
2022/09/22 10:13:39;;;;;;;8.27;4.38;;;;;;;;;;5004414;28;20506;-65
2022/09/22 10:16:07;;;;;;;7.72;4.50;;;;;;;;;;5004107;28;20054;-65
2022/09/22 10:18:35;;;;;;;5.90;4.00;;;;;;;;;;4989562;28;20408;-64
2022/09/22 10:21:17;;;;;;;5.18;3.70;;;;;;;;;;5009982;28;20455;-65
2022/09/22 10:23:49;;;;;;;6.43;3.27;;;;;;;;;;5001632;28;20038;-65
2022/09/22 10:26:16;;;;;;;6.93;4.90;;;;;;;;;;4987764;28;20050;-65
2022/09/22 10:28:42;;;;;;;9.07;4.60;;;;;;;;;;4985601;28;20049;-65
2022/09/22 10:31:18;;;;;;;6.50;4.45;;;;;;;;;;4998523;28;20147;-65
2022/09/22 10:33:58;;;;;;;10.07;4.75;;;;;;;;;;5000385;28;20385;-64
2022/09/22 10:36:25;;;;;;;9.02;4.68;;;;;;;;;;5004261;28;20064;-65
2022/09/22 10:38:52;;;;;;;6.47;3.80;;;;;;;;;;5005954;28;20125;-65
2022/09/22 10:41:24;;;;;;;3.92;3.45;;;;;;;;;;5002453;28;20122;-65
2022/09/22 10:43:54;;;;;;;6.97;4.18;;;;;;;;;;5004214;28;20042;-65
2022/09/22 10:46:23;;;;;;;4.93;3.15;;;;;;;;;;5008504;28;20056;-65
2022/09/22 10:48:52;;;;;;;6.32;4.43;;;;;;;;;;5009065;28;20062;-65
2022/09/22 10:51:26;;;;;;;6.72;4.60;;;;;;;;;;5009570;28;20045;-65
2022/09/22 10:53:52;;;;;;;7.65;5.15;;;;;;;;;;5009806;28;20053;-64
2022/09/22 10:56:36;;;;;;;9.55;5.43;;;;;;;;;;5010731;28;20046;-65
2022/09/22 10:59:05;;;;;;;7.57;5.80;;;;;;;;;;5005693;28;20041;-65
2022/09/22 11:01:40;;;;;;;7.07;5.40;;;;;;;;;;5009782;28;20407;-65
2022/09/22 11:04:16;;;;;;;9.63;5.32;;;;;;;;;;5009659;28;20046;-65
2022/09/22 11:12:38;;;;;;;8.27;5.53;;;;;;;;;;5010348;28;20045;-65
2022/09/22 11:15:15;;;;;;;13.45;5.55;;;;;;;;;;5006261;28;20049;-65
2022/09/22 11:17:41;;;;;;;9.40;5.35;;;;;;;;;;4992066;28;20065;-65
2022/09/22 11:20:36;;;;;;;8.05;5.50;;;;;;;;;;5002527;28;20038;-65
2022/09/22 11:23:21;;;;;;;10.90;6.20;;;;;;;;;;4974050;28;20056;-65
2022/09/22 11:25:57;;;;;;;10.02;6.38;;;;;;;;;;5009214;28;20120;-65
2022/09/22 11:28:44;;;;;;;12.68;5.55;;;;;;;;;;5003305;28;20205;-67
2022/09/22 11:31:23;;;;;;;6.25;5.25;;;;;;;;;;5001018;28;20077;-64
2022/09/22 11:34:03;;;;;;;7.05;4.82;;;;;;;;;;5000615;28;20156;-65
2022/09/22 11:36:48;;;;;;;8.55;5.25;;;;;;;;;;5007443;28;20056;-64
2022/09/22 11:39:19;;;;;;;9.75;5.88;;;;;;;;;;4996766;28;20138;-65
2022/09/22 11:41:57;;;;;;;8.18;5.68;;;;;;;;;;4996968;28;20046;-64
2022/09/22 11:44:32;;;;;;;9.90;5.28;;;;;;;;;;5004576;28;20480;-64
2022/09/22 11:47:05;;;;;;;9.30;6.38;;;;;;;;;;5004028;28;20052;-64
2022/09/22 11:49:46;;;;;;;8.73;6.30;;;;;;;;;;5001324;28;20057;-64
2022/09/22 11:52:13;;;;;;;9.13;6.55;;;;;;;;;;5008435;28;20053;-65
2022/09/22 11:54:51;;;;;;;7.72;6.30;;;;;;;;;;5008828;28;20558;-65
2022/09/22 11:57:18;;;;;;;12.15;7.47;;;;;;;;;;5009072;28;20504;-64
2022/09/22 11:59:44;;;;;;;9.65;7.07;;;;;;;;;;5000564;28;20042;-64
2022/09/22 12:02:17;;;;;;;12.15;8.07;;;;;;;;;;4996787;28;20284;-64
2022/09/22 12:04:49;;;;;;;9.60;6.80;;;;;;;;;;5005615;28;20125;-64
2022/09/22 12:07:18;;;;;;;13.45;7.45;;;;;;;;;;4986770;28;20057;-65
2022/09/22 12:09:53;;;;;;;12.10;7.85;;;;;;;;;;5000698;28;20117;-64
2022/09/22 12:12:21;;;;;;;10.27;6.30;;;;;;;;;;5009295;28;20120;-64
2022/09/22 12:14:56;;;;;;;9.68;6.82;;;;;;;;;;4999673;28;20137;-65
2022/09/22 12:17:29;;;;;;;11.70;6.68;;;;;;;;;;4999107;28;20181;-64
2022/09/22 12:20:14;;;;;;;7.32;5.40;;;;;;;;;;4985766;28;20046;-65
2022/09/22 12:23:06;;;;;;;8.90;5.05;;;;;;;;;;4989289;28;20057;-65
2022/09/22 12:25:43;;;;;;;9.18;5.45;;;;;;;;;;4949113;28;20080;-64
2022/09/22 12:28:19;;;;;;;7.70;5.88;;;;;;;;;;4969376;28;20129;-64
2022/09/22 12:30:55;;;;;;;11.35;7.05;;;;;;;;;;4984607;28;20395;-65
2022/09/22 12:33:22;;;;;;;9.13;6.90;;;;;;;;;;4990597;28;20380;-64
2022/09/22 12:35:52;;;;;;;10.77;7.10;;;;;;;;;;5006136;28;20053;-65
2022/09/22 12:38:20;;;;;;;10.65;6.43;;;;;;;;;;4988040;28;20077;-65
2022/09/22 12:40:50;;;;;;;12.93;6.97;;;;;;;;;;4998514;28;20427;-65
2022/09/22 12:43:20;;;;;;;11.48;7.07;;;;;;;;;;4989868;28;20137;-65
2022/09/22 12:45:47;;;;;;;12.40;7.25;;;;;;;;;;4972979;28;20382;-64
2022/09/22 12:48:17;;;;;;;8.10;6.15;;;;;;;;;;4985185;28;20049;-65
2022/09/22 12:50:44;;;;;;;16.63;7.22;;;;;;;;;;4998879;28;20046;-64
2022/09/22 12:53:10;;;;;;;10.20;6.40;;;;;;;;;;4988215;28;20050;-64
2022/09/22 12:55:39;;;;;;;9.00;5.93;;;;;;;;;;4986327;28;20097;-62
2022/09/22 12:58:21;;;;;;;7.88;6.32;;;;;;;;;;4997952;28;20066;-61
2022/09/22 13:00:51;;;;;;;8.85;5.75;;;;;;;;;;4989796;28;20185;-62
2022/09/22 13:03:29;;;;;;;12.43;6.85;;;;;;;;;;4999760;28;20049;-61
2022/09/22 13:06:03;;;;;;;7.60;6.35;;;;;;;;;;4999360;28;20046;-63
2022/09/22 13:08:32;;;;;;;11.77;6.85;;;;;;;;;;4982993;28;20049;-62
2022/09/22 13:11:02;;;;;;;9.95;6.72;;;;;;;;;;4988223;28;20273;-62
2022/09/22 13:13:31;;;;;;;13.77;6.22;;;;;;;;;;4997767;28;20049;-60
2022/09/22 13:15:58;;;;;;;9.07;6.15;;;;;;;;;;4992077;28;20057;-60
2022/09/22 13:18:35;;;;;;;12.82;6.95;;;;;;;;;;5011371;28;20120;-62
2022/09/22 13:21:03;;;;;;;8.50;7.18;;;;;;;;;;5012045;28;20086;-61
2022/09/22 13:23:29;;;;;;;8.93;6.15;;;;;;;;;;5011527;28;20384;-63
2022/09/22 13:26:04;;;;;;;8.40;5.18;;;;;;;;;;5007722;28;20094;-62
2022/09/22 13:28:30;;;;;;;9.50;6.18;;;;;;;;;;5001761;28;20148;-62
2022/09/22 13:30:59;;;;;;;10.55;6.40;;;;;;;;;;5009320;28;20133;-62
2022/09/22 13:33:27;;;;;;;7.38;5.65;;;;;;;;;;5008794;28;20041;-62
2022/09/22 13:36:13;;;;;;;11.15;5.93;;;;;;;;;;5008764;28;20058;-63
2022/09/22 13:38:52;;;;;;;7.45;4.88;;;;;;;;;;5007782;28;20052;-63
2022/09/22 13:41:26;;;;;;;11.05;5.43;;;;;;;;;;5001424;28;20054;-63
2022/09/22 13:43:58;;;;;;;9.38;6.20;;;;;;;;;;5009118;28;20049;-63
2022/09/22 13:46:28;;;;;;;8.00;5.20;;;;;;;;;;5007967;28;20046;-63
2022/09/22 13:48:56;;;;;;;8.65;5.22;;;;;;;;;;5005379;28;20049;-63
2022/09/22 13:51:23;;;;;;;10.00;5.35;;;;;;;;;;4997645;28;20536;-63
2022/09/22 13:53:51;;;;;;;10.27;6.18;;;;;;;;;;5009670;28;20416;-63
2022/09/22 13:56:18;;;;;;;6.25;4.70;;;;;;;;;;5003264;28;20078;-63
2022/09/22 13:58:45;;;;;;;7.95;4.32;;;;;;;;;;4999611;28;20042;-63
2022/09/22 14:01:15;;;;;;;8.82;3.90;;;;;;;;;;4991957;28;20049;-63
2022/09/22 14:03:42;;;;;;;6.68;4.57;;;;;;;;;;5004661;28;20049;-63
2022/09/22 14:06:13;;;;;;;7.35;4.70;;;;;;;;;;5015734;28;20042;-62
2022/09/22 14:08:39;;;;;;;11.43;4.70;;;;;;;;;;5008610;28;20034;-63
2022/09/22 14:11:12;;;;;;;7.72;4.63;;;;;;;;;;5014434;28;20092;-63
2022/09/22 14:13:38;;;;;;;;;;;;;;;;;;5005216;28;20146;-63
2022/09/22 14:16:09;;;;;;;9.48;5.18;;;;;;;;;;4985950;28;20295;-63
2022/09/22 14:18:38;;;;;;;8.60;4.45;;;;;;;;;;4995693;28;20066;-63
2022/09/22 14:21:08;;;;;;;8.43;4.40;;;;;;;;;;4992444;28;20053;-63
2022/09/22 14:23:34;;;;;;;5.55;3.60;;;;;;;;;;4997298;28;20065;-62
2022/09/22 14:26:02;;;;;;;12.10;4.22;;;;;;;;;;4990581;28;20089;-63
2022/09/22 14:28:29;;;;;;;4.43;2.85;;;;;;;;;;4993780;28;20050;-63
2022/09/22 14:30:55;;;;;;;5.82;3.35;;;;;;;;;;4973261;28;20061;-63
2022/09/22 14:33:24;;;;;;;6.80;4.22;;;;;;;;;;4987556;28;20441;-63
2022/09/22 14:35:58;;;;;;;7.75;4.05;;;;;;;;;;4979693;28;20043;-63
2022/09/22 14:38:24;;;;;;;8.60;3.58;;;;;;;;;;4981970;28;20393;-63
2022/09/22 14:40:54;;;;;;;7.28;3.63;;;;;;;;;;4979217;28;20427;-63
2022/09/22 14:43:26;;;;;;;5.45;3.88;;;;;;;;;;4990041;28;20566;-63
2022/09/22 14:45:59;;;;;;;5.40;2.85;;;;;;;;;;4993068;28;20046;-63
2022/09/22 14:48:38;;;;;;;4.25;3.25;;;;;;;;;;4980526;28;20042;-63
2022/09/22 14:51:07;;;;;;;4.07;3.35;;;;;;;;;;4971810;28;20161;-64
2022/09/22 14:53:36;;;;;;;5.05;2.80;;;;;;;;;;4965584;28;20104;-64
2022/09/22 14:56:07;;;;;;;7.20;3.40;;;;;;;;;;4989047;28;20562;-64
2022/09/22 14:58:36;;;;;;;6.90;3.42;;;;;;;;;;4980755;28;20046;-64
2022/09/22 15:04:04;;;;;;;4.75;2.95;;;;;;;;;;4983990;28;20054;-66
2022/09/22 15:06:32;;;;;;;7.32;3.53;;;;;;;;;;4983284;28;20064;-65
2022/09/22 15:09:03;;;;;;;10.43;3.40;;;;;;;;;;4978912;28;20047;-65
2022/09/22 15:11:46;;;;;;;8.57;3.20;;;;;;;;;;4998060;28;20054;-66
2022/09/22 15:14:30;;;;;;;8.25;3.60;;;;;;;;;;4983170;28;20108;-66
2022/09/22 15:18:12;;;;;;;6.40;4.13;;;;;;;;;;5000559;28;20057;-66
2022/09/22 15:19:43;;;;;;;7.38;3.53;;;;;;;;;;4998133;28;20503;-66
2022/09/22 15:22:13;;;;;;;5.95;3.08;;;;;;;;;;5007969;28;20061;-66
2022/09/22 15:24:39;;;;;;;5.47;3.25;;;;;;;;;;4994890;28;20050;-66
2022/09/22 15:27:07;;;;;;;5.53;2.92;;;;;;;;;;4994722;28;20137;-67
2022/09/22 15:29:33;;;;;;;8.18;3.65;;;;;;;;;;4997507;28;20100;-66
2022/09/22 15:32:03;;;;;;;5.97;3.13;;;;;;;;;;5000616;28;20046;-64
2022/09/22 15:34:29;;;;;;;3.75;2.17;;;;;;;;;;4989016;28;20050;-64
2022/09/22 15:36:56;;;;;;;4.20;2.58;;;;;;;;;;5000738;28;20045;-64
2022/09/22 15:39:23;;;;;;;4.63;2.58;;;;;;;;;;4979127;28;20048;-64
2022/09/22 15:41:50;;;;;;;5.05;3.05;;;;;;;;;;4997907;28;20124;-65
2022/09/22 15:44:16;;;;;;;3.90;2.55;;;;;;;;;;4988282;28;20050;-64
2022/09/22 15:46:43;;;;;;;5.28;3.03;;;;;;;;;;4998830;28;20069;-64
2022/09/22 15:49:28;;;;;;;5.50;2.65;;;;;;;;;;5001168;28;20741;-63
2022/09/22 15:51:56;;;;;;;2.67;2.08;;;;;;;;;;4997498;28;20058;-64
2022/09/22 15:54:22;;;;;;;7.53;2.97;;;;;;;;;;4989038;28;20042;-64
2022/09/22 15:56:50;;;;;;;5.78;2.90;;;;;;;;;;5000463;28;20042;-64
2022/09/22 15:59:26;;;;;;;10.55;2.83;;;;;;;;;;5006596;28;20057;-64
2022/09/22 16:01:54;;;;;;;7.00;2.40;;;;;;;;;;5008896;28;20133;-64
2022/09/22 16:04:20;;;;;;;5.28;2.90;;;;;;;;;;5009304;28;20060;-64
2022/09/22 16:06:55;;;;;;;5.05;2.90;;;;;;;;;;5008950;28;20381;-64
2022/09/22 16:09:21;;;;;;;6.07;2.67;;;;;;;;;;5008357;28;20108;-64
2022/09/22 16:11:48;;;;;;;7.95;4.45;;;;;;;;;;5009176;28;20046;-64
2022/09/22 16:14:14;;;;;;;6.10;3.17;;;;;;;;;;5009124;28;20184;-64
2022/09/22 16:16:41;;;;;;;6.20;3.42;;;;;;;;;;4991784;28;20056;-64
2022/09/22 16:19:08;;;;;;;5.32;3.13;;;;;;;;;;4992606;28;20100;-64
2022/09/22 16:21:35;;;;;;;4.82;2.70;;;;;;;;;;4989319;28;20066;-64
2022/09/22 16:24:06;;;;;;;5.47;3.13;;;;;;;;;;4998569;28;20112;-64
2022/09/22 16:26:32;;;;;;;5.28;2.40;;;;;;;;;;4978681;28;20052;-64
2022/09/22 16:28:58;;;;;;;6.32;3.38;;;;;;;;;;4989528;28;20046;-64
2022/09/22 16:31:26;;;;;;;5.57;2.67;;;;;;;;;;4989402;28;20080;-64
2022/09/22 16:33:53;;;;;;;5.00;2.85;;;;;;;;;;4989467;28;20053;-64
2022/09/22 16:36:24;;;;;;;4.30;2.63;;;;;;;;;;4989273;28;20417;-65
2022/09/22 16:38:51;;;;;;;4.72;3.10;;;;;;;;;;4993838;28;20152;-64
2022/09/22 16:41:17;;;;;;;6.45;3.00;;;;;;;;;;4989129;28;20054;-64
2022/09/22 16:43:43;;;;;;;8.20;3.85;;;;;;;;;;4989546;28;20516;-64
2022/09/22 16:46:25;;;;;;;6.15;3.22;;;;;;;;;;4988906;28;20050;-64
2022/09/22 16:48:51;;;;;;;6.90;3.10;;;;;;;;;;4988353;28;20054;-64
2022/09/22 16:51:18;;;;;;;6.15;3.33;;;;;;;;;;4985775;28;20424;-64
2022/09/22 16:53:54;;;;;;;7.57;3.00;;;;;;;;;;4985770;28;20531;-64
2022/09/22 16:56:20;;;;;;;11.75;3.88;;;;;;;;;;4984774;28;21120;-64
2022/09/22 16:58:47;;;;;;;6.05;2.50;;;;;;;;;;4965604;28;20101;-64
2022/09/22 17:01:14;;;;;;;8.75;3.90;;;;;;;;;;4973050;28;20086;-65
2022/09/22 17:03:43;;;;;;;4.68;2.75;;;;;;;;;;4988299;28;20047;-65
2022/09/22 17:06:10;;;;;;;5.13;2.45;;;;;;;;;;4984937;28;20046;-65
2022/09/22 17:08:43;;;;;;;5.72;2.28;;;;;;;;;;4981730;28;20112;-65
2022/09/22 17:11:12;;;;;;;4.15;3.00;;;;;;;;;;4990998;28;20101;-66
2022/09/22 17:13:45;;;;;;;5.88;2.85;;;;;;;;;;4980717;28;20078;-66
2022/09/22 17:16:20;;;;;;;6.32;3.00;;;;;;;;;;5004571;28;20439;-65
2022/09/22 17:18:46;;;;;;;4.85;2.92;;;;;;;;;;5000330;28;20124;-66
2022/09/22 17:21:12;;;;;;;8.27;3.05;;;;;;;;;;5004562;28;20115;-65
2022/09/22 17:23:39;;;;;;;7.50;2.90;;;;;;;;;;5010083;28;20054;-65
2022/09/22 17:26:10;;;;;;;5.90;3.00;;;;;;;;;;5007341;28;20060;-65
2022/09/22 17:28:37;;;;;;;4.03;2.45;;;;;;;;;;5007399;28;20050;-66
2022/09/22 17:31:07;;;;;;;4.22;2.85;;;;;;;;;;5000885;28;20198;-65
2022/09/22 17:33:35;;;;;;;6.60;3.40;;;;;;;;;;5001693;28;20446;-65
2022/09/22 17:36:02;;;;;;;3.97;2.88;;;;;;;;;;5002031;28;20518;-65
2022/09/22 17:38:33;;;;;;;4.30;2.50;;;;;;;;;;5002983;28;20415;-65
2022/09/22 17:41:06;;;;;;;5.72;2.83;;;;;;;;;;4995578;28;20502;-65
2022/09/22 17:43:33;;;;;;;7.63;3.03;;;;;;;;;;5010524;28;20333;-65
2022/09/22 17:45:59;;;;;;;8.75;3.67;;;;;;;;;;5009828;28;20124;-65
